Terminal Aerodrome Forecast
Issued by NWS

Home | Current Version | Previous Version | Text Only | Print | Product List | Glossary On
Versions: 1 2 3 4 5 6 7 8 9 10 11 12 13
000
FTUS42 KTBW 261120
TAFLAL
TAF
KLAL 261120Z 2612/2712 08005KT P6SM SKC
     FM261700 07010G15KT P6SM FEW050
     FM270200 09008KT P6SM SCT060=

USA.gov is the U.S. government's official web portal to all federal, state and local government web resources and services.